Observations for ALICANTE EL ALTET, Spain (LEAL)

LEAL 211730Z VRB02KT CAVOK 18/09 Q1023 NOSIG
LEAL 211700Z 07003KT 010V160 CAVOK 19/08 Q1023 NOSIG
LEAL 211630Z 29009KT 260V320 CAVOK 23/07 Q1023 NOSIG
LEAL 211600Z 29010KT 270V330 CAVOK 24/07 Q1023 NOSIG
LEAL 211530Z 29014KT CAVOK 24/07 Q1022 NOSIG
LEAL 211500Z 29014KT CAVOK 24/06 Q1022 NOSIG
LEAL 211430Z 29013KT 260V320 CAVOK 24/07 Q1022 NOSIG
LEAL 211400Z 29014KT CAVOK 24/06 Q1022 NOSIG
LEAL 211330Z 29013KT 260V320 CAVOK 24/06 Q1022 NOSIG
LEAL 211300Z 29014KT 260V320 CAVOK 24/06 Q1022 NOSIG
LEAL 211230Z 30016KT 260V320 CAVOK 23/06 Q1023 NOSIG
LEAL 211200Z 29017KT CAVOK 22/06 Q1023 NOSIG
LEAL 211130Z 30014KT 270V330 CAVOK 22/06 Q1023 NOSIG
LEAL 211100Z 30016KT 270V330 CAVOK 21/06 Q1023 NOSIG
LEAL 211030Z 30020KT CAVOK 20/06 Q1023 NOSIG
LEAL 211000Z 30021KT CAVOK 19/05 Q1023 NOSIG
LEAL 210930Z 29019KT 260V320 CAVOK 17/05 Q1023 NOSIG
LEAL 210900Z 30018KT 270V330 CAVOK 17/05 Q1023 NOSIG
LEAL 210830Z 29018KT CAVOK 16/04 Q1023 NOSIG
LEAL 210800Z 28020KT 250V320 CAVOK 15/04 Q1023 NOSIG
LEAL 210730Z 28020G31KT CAVOK 15/04 Q1023 NOSIG 
LEAL 210700Z 28024G34KT CAVOK 16/04 Q1022 NOSIG 
LEAL 210630Z 29023G35KT 260V320 CAVOK 16/04 Q1022 NOSIG 
LEAL 210600Z 29023G34KT 260V320 CAVOK 16/04 Q1022 NOSIG 
LEAL 210530Z 28017G27KT 240V330 CAVOK 15/04 Q1022 NOSIG 
LEAL 210500Z 25014G24KT CAVOK 15/04 Q1022 NOSIG 
LEAL 210430Z 25008KT 220V290 CAVOK 15/04 Q1023 NOSIG
LEAL 210400Z 24009KT 210V280 CAVOK 15/03 Q1023 NOSIG
LEAL 210330Z 25004KT 200V310 CAVOK 15/03 Q1024 NOSIG
LEAL 210300Z 27013KT CAVOK 16/03 Q1024 NOSIG
LEAL 210230Z 26013KT CAVOK 16/03 Q1023 NOSIG
LEAL 210200Z 30025G36KT 260V330 CAVOK 17/03 Q1023 NOSIG 
LEAL 210130Z 29025G38KT 260V330 CAVOK 17/02 Q1023 NOSIG 
LEAL 210100Z 28012KT 250V330 CAVOK 16/03 Q1023 NOSIG
LEAL 210030Z 30020KT CAVOK 16/02 Q1023 NOSIG
LEAL 210000Z 29022G32KT 260V320 CAVOK 17/02 Q1023 NOSIG 
LEAL 202330Z 28019KT 260V320 CAVOK 17/02 Q1023 NOSIG
LEAL 202300Z 28025G35KT CAVOK 17/02 Q1023 NOSIG 
LEAL 202230Z 29020G30KT 260V320 CAVOK 18/02 Q1023 NOSIG 
LEAL 202200Z 30014KT CAVOK 18/02 Q1023 NOSIG
LEAL 202130Z 27012KT CAVOK 15/00 Q1023 NOSIG
LEAL 202100Z 27010KT 250V320 CAVOK 16/M00 Q1023 NOSIG   
LEAL 202030Z 28011KT 240V330 CAVOK 18/M01 Q1023 NOSIG   
LEAL 202000Z 29016G26KT 250V320 CAVOK 19/M01 Q1023 NOSIG
LEAL 201930Z 29009G21KT 240V330 CAVOK 18/M01 Q1023 NOSIG
LEAL 201900Z 30005KT CAVOK 14/03 Q1023 NOSIG
LEAL 201830Z 25012KT 220V280 CAVOK 16/03 Q1022 NOSIG
LEAL 201800Z 27008KT CAVOK 14/01 Q1022 NOSIG
LEAL 201730Z 23005KT CAVOK 17/01 Q1022 NOSIG
LEAL 201700Z 22006KT CAVOK 19/02 Q1022 NOSIG